createdAt,value
2022-08-22T00:01:12.085Z,17.16
2022-08-22T00:02:53.912Z,19.98
2022-08-22T00:03:09.033Z,18.15
2022-08-22T00:03:11.262Z,18.30
2022-08-22T00:03:49.524Z,17.12
2022-08-22T00:06:25.156Z,17.11
2022-08-22T00:09:02.931Z,17.08
2022-08-22T00:11:43.282Z,17.06
2022-08-22T00:14:20.850Z,17.06
2022-08-22T00:16:58.095Z,17.09
2022-08-22T00:19:32.207Z,17.09
2022-08-22T00:22:04.262Z,17.10
2022-08-22T00:24:38.543Z,17.11
2022-08-22T00:27:11.688Z,17.06
2022-08-22T00:29:47.036Z,16.98
2022-08-22T00:32:20.498Z,16.94
2022-08-22T00:34:57.034Z,16.90
2022-08-22T00:37:31.645Z,16.88
2022-08-22T00:40:04.568Z,16.88
2022-08-22T00:43:08.394Z,16.87
2022-08-22T00:46:03.961Z,16.88
2022-08-22T00:49:03.604Z,16.83
2022-08-22T00:52:18.656Z,16.78
2022-08-22T00:55:04.468Z,16.74
2022-08-22T00:57:52.625Z,16.73
2022-08-22T01:00:22.977Z,16.72
2022-08-22T01:03:06.326Z,16.73
2022-08-22T01:05:48.993Z,16.73
2022-08-22T01:08:37.151Z,16.72
2022-08-22T01:11:22.618Z,16.72
2022-08-22T01:14:21.022Z,16.73
2022-08-22T01:17:39.132Z,16.71
2022-08-22T01:20:44.604Z,16.69
2022-08-22T01:23:47.855Z,16.68
2022-08-22T01:26:44.704Z,16.69
2022-08-22T01:29:47.883Z,16.70
2022-08-22T01:32:42.890Z,16.71
2022-08-22T01:35:21.287Z,16.66
2022-08-22T01:38:12.803Z,16.64
2022-08-22T01:41:20.996Z,16.61
2022-08-22T01:44:03.631Z,16.60
2022-08-22T01:46:44.625Z,16.53
2022-08-22T01:49:18.812Z,16.50
2022-08-22T01:51:54.716Z,16.46
2022-08-22T01:54:35.782Z,16.38
2022-08-22T01:57:07.762Z,16.36
2022-08-22T01:59:42.455Z,16.32
2022-08-22T02:02:25.057Z,16.30
2022-08-22T02:04:59.120Z,16.23
2022-08-22T02:07:35.129Z,16.17
2022-08-22T02:10:12.621Z,16.14
2022-08-22T02:12:46.567Z,16.08
2022-08-22T02:15:20.280Z,16.04
2022-08-22T02:17:56.559Z,16.03
2022-08-22T02:20:34.168Z,16.02
2022-08-22T02:23:10.257Z,15.98
2022-08-22T02:25:51.830Z,15.96
2022-08-22T02:28:34.044Z,15.92
2022-08-22T02:31:07.173Z,15.90
2022-08-22T02:33:43.697Z,15.87
2022-08-22T02:36:19.766Z,15.87
2022-08-22T02:38:58.790Z,15.88
2022-08-22T02:41:32.226Z,15.88
2022-08-22T02:44:04.379Z,15.87
2022-08-22T02:46:46.921Z,15.87
2022-08-22T02:49:21.598Z,15.87
2022-08-22T02:51:56.624Z,15.86
2022-08-22T02:54:31.391Z,15.85
2022-08-22T02:57:06.641Z,15.83
2022-08-22T03:00:04.305Z,15.80
2022-08-22T03:02:38.857Z,15.79
2022-08-22T03:05:24.463Z,15.74
2022-08-22T03:08:08.160Z,15.71
2022-08-22T03:10:43.816Z,15.71
2022-08-22T03:13:14.606Z,15.65
2022-08-22T03:15:49.978Z,15.62
2022-08-22T03:18:23.825Z,15.58
2022-08-22T03:20:59.036Z,15.58
2022-08-22T03:23:43.273Z,15.55
2022-08-22T03:26:18.307Z,15.51
2022-08-22T03:28:59.009Z,15.51
2022-08-22T03:31:29.994Z,15.50
2022-08-22T03:34:20.288Z,15.47
2022-08-22T03:36:57.819Z,15.44
2022-08-22T03:39:43.856Z,15.42
2022-08-22T03:42:26.168Z,15.41
2022-08-22T03:45:16.098Z,15.36
2022-08-22T03:48:18.294Z,15.35
2022-08-22T03:51:01.667Z,15.30
2022-08-22T03:53:47.258Z,15.23
2022-08-22T03:56:41.735Z,15.21
2022-08-22T03:59:51.725Z,15.18
2022-08-22T04:02:43.101Z,15.16
2022-08-22T04:05:40.767Z,15.18
2022-08-22T04:08:44.865Z,15.19
2022-08-22T04:11:54.265Z,15.20
2022-08-22T04:14:41.605Z,15.19
2022-08-22T04:17:44.280Z,15.17
2022-08-22T04:20:25.037Z,15.17
2022-08-22T04:23:25.196Z,15.16
2022-08-22T04:25:57.336Z,15.18
2022-08-22T04:28:31.547Z,15.18
2022-08-22T04:31:07.445Z,15.17
2022-08-22T04:33:42.139Z,15.18
2022-08-22T04:36:17.667Z,15.21
2022-08-22T04:38:49.421Z,15.24
2022-08-22T04:41:24.441Z,15.28
2022-08-22T04:43:59.496Z,15.31
2022-08-22T04:46:36.933Z,15.36
2022-08-22T04:49:11.721Z,15.38
2022-08-22T04:51:46.155Z,15.27
2022-08-22T04:54:38.488Z,15.23
2022-08-22T04:57:20.083Z,15.26
2022-08-22T04:59:48.321Z,15.32
2022-08-22T05:02:24.833Z,15.37
2022-08-22T05:05:01.621Z,15.43
2022-08-22T05:07:35.983Z,15.48
2022-08-22T05:10:12.197Z,15.58
2022-08-22T05:12:43.809Z,15.67
2022-08-22T05:15:23.571Z,15.78
2022-08-22T05:17:56.911Z,15.88
2022-08-22T05:20:27.075Z,16.00
2022-08-22T05:22:58.663Z,16.11
2022-08-22T05:25:30.748Z,16.23
2022-08-22T05:28:10.612Z,16.31
2022-08-22T05:30:39.321Z,16.42
2022-08-22T05:33:17.402Z,16.51
2022-08-22T05:35:53.442Z,16.62
2022-08-22T05:38:29.987Z,16.76
2022-08-22T05:41:02.767Z,16.89
2022-08-22T05:43:30.402Z,17.04
2022-08-22T05:46:00.226Z,17.23
2022-08-22T05:48:38.608Z,17.65
2022-08-22T05:51:16.825Z,18.16
2022-08-22T05:53:50.371Z,18.88
2022-08-22T05:56:27.327Z,19.31
2022-08-22T05:59:01.591Z,19.78
2022-08-22T06:01:35.398Z,20.15
2022-08-22T06:04:09.335Z,20.83
2022-08-22T06:06:42.483Z,21.37
2022-08-22T06:09:19.005Z,21.72
2022-08-22T06:11:52.494Z,22.13
2022-08-22T06:14:29.739Z,22.80
2022-08-22T06:17:03.775Z,23.17
2022-08-22T06:19:36.273Z,23.49
2022-08-22T06:22:05.970Z,23.83
2022-08-22T06:24:38.095Z,24.29
2022-08-22T06:27:09.813Z,24.68
2022-08-22T06:29:42.502Z,24.78
2022-08-22T06:32:14.233Z,24.83
2022-08-22T06:34:46.718Z,24.81
2022-08-22T06:37:24.428Z,25.24
2022-08-22T06:39:55.014Z,25.75
2022-08-22T06:42:26.159Z,25.90
2022-08-22T06:44:58.371Z,26.30
2022-08-22T06:47:29.744Z,26.76
2022-08-22T06:50:13.793Z,27.22
2022-08-22T06:52:53.227Z,27.25
2022-08-22T06:55:22.810Z,27.18
2022-08-22T06:57:55.705Z,27.44
2022-08-22T07:00:24.412Z,27.11
2022-08-22T07:02:58.146Z,26.92
2022-08-22T07:05:29.513Z,26.66
2022-08-22T07:07:58.044Z,26.39
2022-08-22T07:10:26.300Z,26.48
2022-08-22T07:12:57.370Z,26.70
2022-08-22T07:15:33.984Z,26.97
2022-08-22T07:18:04.355Z,27.49
2022-08-22T07:20:38.614Z,27.46
2022-08-22T07:23:09.348Z,27.26
2022-08-22T07:25:54.269Z,27.63
2022-08-22T07:28:51.259Z,28.17
2022-08-22T07:31:35.485Z,28.63
2022-08-22T07:34:18.950Z,29.14
2022-08-22T07:36:51.531Z,29.66
2022-08-22T07:39:26.533Z,29.89
2022-08-22T07:42:07.901Z,29.95
2022-08-22T07:44:43.391Z,29.66
2022-08-22T07:47:16.355Z,30.01
2022-08-22T07:49:53.937Z,30.39
2022-08-22T07:52:24.719Z,30.62
2022-08-22T07:54:57.786Z,30.63
2022-08-22T07:57:32.602Z,30.73
2022-08-22T08:00:02.918Z,30.88
2022-08-22T08:02:30.916Z,31.09
2022-08-22T08:05:01.255Z,31.35
2022-08-22T08:07:32.201Z,31.67
2022-08-22T08:10:07.956Z,31.75
2022-08-22T08:12:45.047Z,31.36
2022-08-22T08:15:26.901Z,31.28
2022-08-22T08:17:59.787Z,31.70
2022-08-22T08:20:29.509Z,31.85
2022-08-22T08:23:00.194Z,32.00
2022-08-22T08:25:30.310Z,31.89
2022-08-22T08:28:17.083Z,32.14
2022-08-22T08:30:48.210Z,31.96
2022-08-22T08:33:26.366Z,32.25
2022-08-22T08:36:04.767Z,32.43
2022-08-22T08:38:41.040Z,32.31
2022-08-22T08:41:31.396Z,32.12
2022-08-22T08:44:06.905Z,32.56
2022-08-22T08:46:55.901Z,32.99
2022-08-22T08:49:42.154Z,32.81
2022-08-22T08:52:28.713Z,32.19
2022-08-22T08:55:22.033Z,31.72
2022-08-22T08:58:10.235Z,31.96
2022-08-22T09:00:52.136Z,32.59
2022-08-22T09:03:44.439Z,32.77
2022-08-22T09:06:37.696Z,33.09
2022-08-22T09:09:29.616Z,33.17
2022-08-22T09:12:20.151Z,33.26
2022-08-22T09:18:29.001Z,33.21
2022-08-22T09:24:52.406Z,33.68
2022-08-22T09:27:32.866Z,33.82
2022-08-22T09:33:00.993Z,34.31
2022-08-22T09:35:37.621Z,34.54
2022-08-22T09:38:30.489Z,34.39
2022-08-22T09:40:15.957Z,33.25
2022-08-22T09:41:07.612Z,33.94
2022-08-22T09:43:41.871Z,34.01
2022-08-22T09:46:20.513Z,33.66
2022-08-22T09:49:01.157Z,33.99
2022-08-22T09:51:39.610Z,34.04
2022-08-22T09:54:34.147Z,34.06
2022-08-22T09:57:15.763Z,34.43
2022-08-22T10:00:02.611Z,34.50
2022-08-22T10:02:43.594Z,34.40
2022-08-22T10:05:40.981Z,34.21
2022-08-22T10:08:26.356Z,34.42
2022-08-22T10:11:25.966Z,34.25
2022-08-22T10:14:02.475Z,33.37
2022-08-22T10:16:52.968Z,33.71
2022-08-22T10:19:27.383Z,33.47
2022-08-22T10:22:20.095Z,33.70
2022-08-22T10:24:55.369Z,33.77
2022-08-22T10:27:52.144Z,33.71
2022-08-22T10:30:22.841Z,33.62
2022-08-22T10:33:00.168Z,32.22
2022-08-22T10:35:34.026Z,31.45
2022-08-22T10:38:10.613Z,31.05
2022-08-22T10:40:43.317Z,31.27
2022-08-22T10:43:15.566Z,31.00
2022-08-22T10:45:47.783Z,31.54
2022-08-22T10:48:35.092Z,31.77
2022-08-22T10:51:15.139Z,31.98
2022-08-22T10:53:58.582Z,32.46
2022-08-22T10:56:33.973Z,32.40
2022-08-22T10:59:13.684Z,31.84
2022-08-22T11:01:50.023Z,31.31
2022-08-22T11:04:31.804Z,30.84
2022-08-22T11:07:14.616Z,30.83
2022-08-22T11:09:44.404Z,30.70
2022-08-22T11:12:23.320Z,30.74
2022-08-22T11:15:12.047Z,30.92
2022-08-22T11:18:22.361Z,30.85
2022-08-22T11:21:00.357Z,30.37
2022-08-22T11:23:40.605Z,29.83
2022-08-22T11:26:23.060Z,29.93
2022-08-22T11:29:22.826Z,29.86
2022-08-22T11:32:01.435Z,29.84
2022-08-22T11:34:52.524Z,29.78
2022-08-22T11:37:43.316Z,30.09
2022-08-22T11:40:23.298Z,29.90
2022-08-22T11:43:03.131Z,29.61
2022-08-22T11:45:40.401Z,29.40
2022-08-22T11:48:18.720Z,29.14
2022-08-22T11:50:52.369Z,29.37
2022-08-22T11:53:28.292Z,29.57
2022-08-22T11:56:08.651Z,29.57
2022-08-22T11:58:51.467Z,29.34
2022-08-22T12:01:23.720Z,29.42
2022-08-22T12:04:03.388Z,29.39
2022-08-22T12:06:56.870Z,29.25
2022-08-22T12:09:35.869Z,29.20
2022-08-22T12:12:32.424Z,29.44
2022-08-22T12:15:08.971Z,29.41
2022-08-22T12:18:01.890Z,29.26
2022-08-22T12:20:52.396Z,29.24
2022-08-22T12:23:43.610Z,29.16
2022-08-22T12:26:28.960Z,29.06
2022-08-22T12:29:23.324Z,29.05
2022-08-22T12:32:44.019Z,29.09
2022-08-22T12:35:30.530Z,28.74
2022-08-22T12:38:26.621Z,28.40
2022-08-22T12:41:13.835Z,28.52
2022-08-22T12:44:06.635Z,28.57
2022-08-22T12:46:48.240Z,28.41
2022-08-22T12:49:31.794Z,27.96
2022-08-22T12:52:16.765Z,27.85
2022-08-22T12:55:09.576Z,27.59
2022-08-22T12:57:45.571Z,27.61
2022-08-22T13:00:30.209Z,27.75
2022-08-22T13:03:03.112Z,27.93
2022-08-22T13:05:40.960Z,28.01
2022-08-22T13:08:13.284Z,28.18
2022-08-22T13:10:47.403Z,28.36
2022-08-22T13:13:31.753Z,28.12
2022-08-22T13:16:09.532Z,28.10
2022-08-22T13:18:47.579Z,27.90
2022-08-22T13:21:28.849Z,27.82
2022-08-22T13:24:10.612Z,27.79
2022-08-22T13:26:49.219Z,27.70
2022-08-22T13:29:26.081Z,27.91
2022-08-22T13:32:01.980Z,28.09
2022-08-22T13:34:39.808Z,28.27
2022-08-22T13:37:12.561Z,28.26
2022-08-22T13:39:44.755Z,28.28
2022-08-22T13:42:20.183Z,28.34
2022-08-22T13:44:59.511Z,28.42
2022-08-22T13:47:34.549Z,28.36
2022-08-22T13:50:11.148Z,28.49
2022-08-22T13:52:52.215Z,28.49
2022-08-22T13:55:30.015Z,28.54
2022-08-22T13:58:02.405Z,28.47
2022-08-22T14:01:07.284Z,28.42
2022-08-22T14:03:42.973Z,28.38
2022-08-22T14:06:36.950Z,28.44
2022-08-22T14:09:15.037Z,28.45
2022-08-22T14:11:49.381Z,28.45
2022-08-22T14:14:25.116Z,28.32
2022-08-22T14:16:55.911Z,28.44
2022-08-22T14:19:35.040Z,28.32
2022-08-22T14:22:32.003Z,28.27
2022-08-22T14:25:07.248Z,28.11
2022-08-22T14:27:39.881Z,27.83
2022-08-22T14:30:16.079Z,27.55
2022-08-22T14:32:48.977Z,27.47
2022-08-22T14:35:35.083Z,27.44
2022-08-22T14:38:17.484Z,27.31
2022-08-22T14:40:46.329Z,27.31
2022-08-22T14:43:22.434Z,27.18
2022-08-22T14:45:57.194Z,27.11
2022-08-22T14:48:40.561Z,27.09
2022-08-22T14:51:18.363Z,27.19
2022-08-22T14:53:49.981Z,27.23
2022-08-22T14:56:22.583Z,27.14
2022-08-22T14:58:54.412Z,27.14
2022-08-22T15:01:25.350Z,27.04
2022-08-22T15:03:57.517Z,27.06
2022-08-22T15:06:36.728Z,26.98
2022-08-22T15:09:08.403Z,27.03
2022-08-22T15:11:42.189Z,27.11
2022-08-22T15:14:21.807Z,27.08
2022-08-22T15:16:56.049Z,27.02
2022-08-22T15:19:28.579Z,26.95
2022-08-22T15:22:15.833Z,26.82
2022-08-22T15:24:48.429Z,26.69
2022-08-22T15:27:19.829Z,26.54
2022-08-22T15:29:51.506Z,26.46
2022-08-22T15:32:22.667Z,26.34
2022-08-22T15:35:03.239Z,26.34
2022-08-22T15:37:34.895Z,26.22
2022-08-22T15:40:12.040Z,26.14
2022-08-22T15:42:44.791Z,26.16
2022-08-22T15:45:22.310Z,26.25
2022-08-22T15:47:53.060Z,26.30
2022-08-22T15:50:31.856Z,26.29
2022-08-22T15:53:16.022Z,26.19
2022-08-22T15:56:19.901Z,26.20
2022-08-22T15:58:50.629Z,26.24
2022-08-22T16:01:22.346Z,26.14
2022-08-22T16:03:57.174Z,26.07
2022-08-22T16:06:44.925Z,26.05
